sensor_id;sensor_type;location;lat;lon;timestamp;temperature;humidity
67131;HTU21D;54051;53.464;49.532;2023-08-07T00:00:20;22.67;56.54
67131;HTU21D;54051;53.464;49.532;2023-08-07T00:02:46;22.62;56.68
67131;HTU21D;54051;53.464;49.532;2023-08-07T00:05:12;22.58;56.55
67131;HTU21D;54051;53.464;49.532;2023-08-07T00:07:38;22.54;56.86
67131;HTU21D;54051;53.464;49.532;2023-08-07T00:10:04;22.43;57.13
67131;HTU21D;54051;53.464;49.532;2023-08-07T00:12:30;22.40;57.25
67131;HTU21D;54051;53.464;49.532;2023-08-07T00:14:56;22.39;57.16
67131;HTU21D;54051;53.464;49.532;2023-08-07T00:17:23;22.35;57.20
67131;HTU21D;54051;53.464;49.532;2023-08-07T00:19:49;22.32;57.07
67131;HTU21D;54051;53.464;49.532;2023-08-07T00:22:15;22.26;57.41
67131;HTU21D;54051;53.464;49.532;2023-08-07T00:24:41;22.27;57.16
67131;HTU21D;54051;53.464;49.532;2023-08-07T00:27:08;22.31;57.22
67131;HTU21D;54051;53.464;49.532;2023-08-07T00:29:36;22.31;57.11
67131;HTU21D;54051;53.464;49.532;2023-08-07T00:32:02;22.32;57.13
67131;HTU21D;54051;53.464;49.532;2023-08-07T00:34:29;22.25;57.26
67131;HTU21D;54051;53.464;49.532;2023-08-07T00:36:55;22.24;57.34
67131;HTU21D;54051;53.464;49.532;2023-08-07T00:39:21;22.23;57.16
67131;HTU21D;54051;53.464;49.532;2023-08-07T00:41:47;22.22;57.14
67131;HTU21D;54051;53.464;49.532;2023-08-07T00:44:13;22.22;57.26
67131;HTU21D;54051;53.464;49.532;2023-08-07T00:46:39;22.17;57.36
67131;HTU21D;54051;53.464;49.532;2023-08-07T00:49:05;22.14;57.44
67131;HTU21D;54051;53.464;49.532;2023-08-07T00:51:32;22.11;57.50
67131;HTU21D;54051;53.464;49.532;2023-08-07T00:53:58;22.09;57.45
67131;HTU21D;54051;53.464;49.532;2023-08-07T00:56:26;22.07;57.48
67131;HTU21D;54051;53.464;49.532;2023-08-07T00:58:52;22.03;57.74
67131;HTU21D;54051;53.464;49.532;2023-08-07T01:01:18;21.98;57.96
67131;HTU21D;54051;53.464;49.532;2023-08-07T01:03:44;21.97;58.03
67131;HTU21D;54051;53.464;49.532;2023-08-07T01:06:14;22.02;57.99
67131;HTU21D;54051;53.464;49.532;2023-08-07T01:08:40;21.96;58.04
67131;HTU21D;54051;53.464;49.532;2023-08-07T01:13:55;21.90;58.24
67131;HTU21D;54051;53.464;49.532;2023-08-07T01:16:21;21.93;57.96
67131;HTU21D;54051;53.464;49.532;2023-08-07T01:18:52;21.92;57.99
67131;HTU21D;54051;53.464;49.532;2023-08-07T01:21:20;21.93;57.75
67131;HTU21D;54051;53.464;49.532;2023-08-07T01:23:47;21.88;58.16
67131;HTU21D;54051;53.464;49.532;2023-08-07T01:26:14;21.85;57.98
67131;HTU21D;54051;53.464;49.532;2023-08-07T01:28:42;21.91;57.90
67131;HTU21D;54051;53.464;49.532;2023-08-07T01:31:10;21.93;58.03
67131;HTU21D;54051;53.464;49.532;2023-08-07T01:33:43;21.95;58.12
67131;HTU21D;54051;53.464;49.532;2023-08-07T01:36:12;21.92;58.07
67131;HTU21D;54051;53.464;49.532;2023-08-07T01:38:38;21.96;58.01
67131;HTU21D;54051;53.464;49.532;2023-08-07T01:41:04;21.90;58.48
67131;HTU21D;54051;53.464;49.532;2023-08-07T01:43:30;21.92;58.41
67131;HTU21D;54051;53.464;49.532;2023-08-07T01:45:57;21.98;58.15
67131;HTU21D;54051;53.464;49.532;2023-08-07T01:48:24;22.05;57.87
67131;HTU21D;54051;53.464;49.532;2023-08-07T01:50:50;22.06;57.85
67131;HTU21D;54051;53.464;49.532;2023-08-07T01:53:16;22.03;57.61
67131;HTU21D;54051;53.464;49.532;2023-08-07T01:55:42;22.06;57.51
67131;HTU21D;54051;53.464;49.532;2023-08-07T01:58:08;22.11;57.25
67131;HTU21D;54051;53.464;49.532;2023-08-07T02:00:34;22.17;57.00
67131;HTU21D;54051;53.464;49.532;2023-08-07T02:03:00;22.20;56.83
67131;HTU21D;54051;53.464;49.532;2023-08-07T02:05:26;22.24;56.89
67131;HTU21D;54051;53.464;49.532;2023-08-07T02:07:52;22.28;56.90
67131;HTU21D;54051;53.464;49.532;2023-08-07T02:10:18;22.34;57.01
67131;HTU21D;54051;53.464;49.532;2023-08-07T02:12:44;22.39;57.05
67131;HTU21D;54051;53.464;49.532;2023-08-07T02:15:10;22.44;56.97
67131;HTU21D;54051;53.464;49.532;2023-08-07T02:17:36;22.46;56.89
67131;HTU21D;54051;53.464;49.532;2023-08-07T02:20:04;22.34;57.42
67131;HTU21D;54051;53.464;49.532;2023-08-07T02:22:31;22.37;57.58
67131;HTU21D;54051;53.464;49.532;2023-08-07T02:24:57;22.38;57.51
67131;HTU21D;54051;53.464;49.532;2023-08-07T02:27:23;22.38;57.35
67131;HTU21D;54051;53.464;49.532;2023-08-07T02:29:49;22.47;57.19
67131;HTU21D;54051;53.464;49.532;2023-08-07T02:32:16;22.69;56.33
67131;HTU21D;54051;53.464;49.532;2023-08-07T02:34:43;22.84;55.95
67131;HTU21D;54051;53.464;49.532;2023-08-07T02:37:09;23.16;55.04
67131;HTU21D;54051;53.464;49.532;2023-08-07T02:39:35;24.56;50.93
67131;HTU21D;54051;53.464;49.532;2023-08-07T02:42:01;26.58;45.32
67131;HTU21D;54051;53.464;49.532;2023-08-07T02:44:27;29.07;39.11
67131;HTU21D;54051;53.464;49.532;2023-08-07T02:46:53;31.39;33.98
67131;HTU21D;54051;53.464;49.532;2023-08-07T02:49:19;32.41;31.55
67131;HTU21D;54051;53.464;49.532;2023-08-07T02:51:45;33.68;29.19
67131;HTU21D;54051;53.464;49.532;2023-08-07T02:54:11;34.44;27.96
67131;HTU21D;54051;53.464;49.532;2023-08-07T02:56:37;34.33;27.93
67131;HTU21D;54051;53.464;49.532;2023-08-07T02:59:03;34.74;26.89
67131;HTU21D;54051;53.464;49.532;2023-08-07T03:01:29;34.54;27.42
67131;HTU21D;54051;53.464;49.532;2023-08-07T03:03:55;35.55;25.81
67131;HTU21D;54051;53.464;49.532;2023-08-07T03:06:21;36.83;23.84
67131;HTU21D;54051;53.464;49.532;2023-08-07T03:08:47;37.38;22.80
67131;HTU21D;54051;53.464;49.532;2023-08-07T03:11:13;38.31;21.37
67131;HTU21D;54051;53.464;49.532;2023-08-07T03:13:39;38.89;20.43
67131;HTU21D;54051;53.464;49.532;2023-08-07T03:16:05;38.40;21.18
67131;HTU21D;54051;53.464;49.532;2023-08-07T03:18:32;38.77;20.60
67131;HTU21D;54051;53.464;49.532;2023-08-07T03:20:58;38.48;20.82
67131;HTU21D;54051;53.464;49.532;2023-08-07T03:23:24;39.05;20.21
67131;HTU21D;54051;53.464;49.532;2023-08-07T03:25:51;39.87;19.36
67131;HTU21D;54051;53.464;49.532;2023-08-07T03:28:27;41.09;17.65
67131;HTU21D;54051;53.464;49.532;2023-08-07T03:30:53;41.35;17.28
67131;HTU21D;54051;53.464;49.532;2023-08-07T03:33:19;40.02;19.32
67131;HTU21D;54051;53.464;49.532;2023-08-07T03:35:45;39.74;19.40
67131;HTU21D;54051;53.464;49.532;2023-08-07T03:38:11;38.61;21.23
67131;HTU21D;54051;53.464;49.532;2023-08-07T03:40:37;38.05;21.84
67131;HTU21D;54051;53.464;49.532;2023-08-07T03:43:02;38.14;21.82
67131;HTU21D;54051;53.464;49.532;2023-08-07T03:45:28;37.91;22.43
67131;HTU21D;54051;53.464;49.532;2023-08-07T03:47:54;38.53;21.56
67131;HTU21D;54051;53.464;49.532;2023-08-07T03:50:20;38.46;21.71
67131;HTU21D;54051;53.464;49.532;2023-08-07T03:52:46;38.63;21.78
67131;HTU21D;54051;53.464;49.532;2023-08-07T03:55:12;37.80;23.14
67131;HTU21D;54051;53.464;49.532;2023-08-07T03:57:37;39.08;21.35
67131;HTU21D;54051;53.464;49.532;2023-08-07T04:00:03;39.44;20.28
67131;HTU21D;54051;53.464;49.532;2023-08-07T04:02:29;38.91;21.12
67131;HTU21D;54051;53.464;49.532;2023-08-07T04:04:55;38.53;21.80
67131;HTU21D;54051;53.464;49.532;2023-08-07T04:07:21;38.81;21.63
67131;HTU21D;54051;53.464;49.532;2023-08-07T04:09:47;38.59;21.87
67131;HTU21D;54051;53.464;49.532;2023-08-07T04:12:13;38.62;22.03
67131;HTU21D;54051;53.464;49.532;2023-08-07T04:14:39;39.50;20.66
67131;HTU21D;54051;53.464;49.532;2023-08-07T04:17:05;39.74;20.12
67131;HTU21D;54051;53.464;49.532;2023-08-07T04:19:31;41.00;18.38
67131;HTU21D;54051;53.464;49.532;2023-08-07T04:21:56;41.47;17.60
67131;HTU21D;54051;53.464;49.532;2023-08-07T04:24:22;41.66;17.80
67131;HTU21D;54051;53.464;49.532;2023-08-07T04:26:48;41.63;17.61
67131;HTU21D;54051;53.464;49.532;2023-08-07T04:29:14;42.08;17.08
67131;HTU21D;54051;53.464;49.532;2023-08-07T04:31:40;42.30;16.94
67131;HTU21D;54051;53.464;49.532;2023-08-07T04:34:06;42.70;16.61
67131;HTU21D;54051;53.464;49.532;2023-08-07T04:36:31;43.21;16.00
67131;HTU21D;54051;53.464;49.532;2023-08-07T04:38:58;44.17;15.41
67131;HTU21D;54051;53.464;49.532;2023-08-07T04:41:24;44.46;15.23
67131;HTU21D;54051;53.464;49.532;2023-08-07T04:43:50;44.71;14.48
67131;HTU21D;54051;53.464;49.532;2023-08-07T04:46:15;43.77;15.24
67131;HTU21D;54051;53.464;49.532;2023-08-07T04:48:41;43.52;16.07
67131;HTU21D;54051;53.464;49.532;2023-08-07T04:51:07;42.62;17.04
67131;HTU21D;54051;53.464;49.532;2023-08-07T04:53:33;42.64;16.96
67131;HTU21D;54051;53.464;49.532;2023-08-07T04:55:59;42.41;17.96
67131;HTU21D;54051;53.464;49.532;2023-08-07T04:58:25;43.47;16.45
67131;HTU21D;54051;53.464;49.532;2023-08-07T05:00:57;44.62;14.85
67131;HTU21D;54051;53.464;49.532;2023-08-07T05:03:23;45.36;13.75
67131;HTU21D;54051;53.464;49.532;2023-08-07T05:05:49;45.54;13.65
67131;HTU21D;54051;53.464;49.532;2023-08-07T05:08:15;45.95;13.04
67131;HTU21D;54051;53.464;49.532;2023-08-07T05:10:41;46.48;12.41
67131;HTU21D;54051;53.464;49.532;2023-08-07T05:13:07;46.50;12.92
67131;HTU21D;54051;53.464;49.532;2023-08-07T05:15:33;46.82;12.75
67131;HTU21D;54051;53.464;49.532;2023-08-07T05:17:59;46.34;12.49
67131;HTU21D;54051;53.464;49.532;2023-08-07T05:20:25;46.61;12.30
67131;HTU21D;54051;53.464;49.532;2023-08-07T05:22:50;45.85;12.30
67131;HTU21D;54051;53.464;49.532;2023-08-07T05:25:16;46.16;11.85
67131;HTU21D;54051;53.464;49.532;2023-08-07T05:27:42;46.92;9.75
67131;HTU21D;54051;53.464;49.532;2023-08-07T05:30:08;48.74;7.38
67131;HTU21D;54051;53.464;49.532;2023-08-07T05:32:35;49.59;6.49
67131;HTU21D;54051;53.464;49.532;2023-08-07T05:35:04;49.46;6.80
67131;HTU21D;54051;53.464;49.532;2023-08-07T05:37:30;48.74;7.37
67131;HTU21D;54051;53.464;49.532;2023-08-07T05:39:57;48.71;7.61
67131;HTU21D;54051;53.464;49.532;2023-08-07T05:42:23;50.24;6.30
67131;HTU21D;54051;53.464;49.532;2023-08-07T05:44:48;47.81;7.54
67131;HTU21D;54051;53.464;49.532;2023-08-07T05:47:14;45.81;9.39
67131;HTU21D;54051;53.464;49.532;2023-08-07T05:49:40;45.86;9.01
67131;HTU21D;54051;53.464;49.532;2023-08-07T05:52:07;47.04;8.75
67131;HTU21D;54051;53.464;49.532;2023-08-07T05:54:33;48.22;7.79
67131;HTU21D;54051;53.464;49.532;2023-08-07T05:56:58;47.76;8.38
67131;HTU21D;54051;53.464;49.532;2023-08-07T05:59:24;47.98;7.53
67131;HTU21D;54051;53.464;49.532;2023-08-07T06:01:50;46.71;8.50
67131;HTU21D;54051;53.464;49.532;2023-08-07T06:04:16;46.50;8.71
67131;HTU21D;54051;53.464;49.532;2023-08-07T06:06:42;46.60;8.62
67131;HTU21D;54051;53.464;49.532;2023-08-07T06:09:08;46.24;8.84
67131;HTU21D;54051;53.464;49.532;2023-08-07T06:11:35;45.42;9.91
67131;HTU21D;54051;53.464;49.532;2023-08-07T06:14:01;46.60;8.81
67131;HTU21D;54051;53.464;49.532;2023-08-07T06:16:27;47.72;8.19
67131;HTU21D;54051;53.464;49.532;2023-08-07T06:18:53;48.55;7.04
67131;HTU21D;54051;53.464;49.532;2023-08-07T06:21:19;48.20;7.70
67131;HTU21D;54051;53.464;49.532;2023-08-07T06:23:46;47.76;7.74
67131;HTU21D;54051;53.464;49.532;2023-08-07T06:26:12;47.25;8.17
67131;HTU21D;54051;53.464;49.532;2023-08-07T06:28:38;46.14;9.36
67131;HTU21D;54051;53.464;49.532;2023-08-07T06:31:05;46.30;8.73
67131;HTU21D;54051;53.464;49.532;2023-08-07T06:33:31;46.19;9.18
67131;HTU21D;54051;53.464;49.532;2023-08-07T06:35:57;47.43;8.08
67131;HTU21D;54051;53.464;49.532;2023-08-07T06:38:23;46.64;8.39
67131;HTU21D;54051;53.464;49.532;2023-08-07T06:40:49;46.13;9.40
67131;HTU21D;54051;53.464;49.532;2023-08-07T06:43:16;46.16;9.05
67131;HTU21D;54051;53.464;49.532;2023-08-07T06:45:41;47.54;7.92
67131;HTU21D;54051;53.464;49.532;2023-08-07T06:48:07;48.13;7.32
67131;HTU21D;54051;53.464;49.532;2023-08-07T06:50:33;48.23;7.57
67131;HTU21D;54051;53.464;49.532;2023-08-07T06:52:59;48.11;7.49
67131;HTU21D;54051;53.464;49.532;2023-08-07T06:55:25;48.40;7.19
67131;HTU21D;54051;53.464;49.532;2023-08-07T06:57:51;48.10;7.38
67131;HTU21D;54051;53.464;49.532;2023-08-07T07:00:17;47.73;7.43
67131;HTU21D;54051;53.464;49.532;2023-08-07T07:02:42;46.78;8.48
67131;HTU21D;54051;53.464;49.532;2023-08-07T07:05:08;47.22;8.40
67131;HTU21D;54051;53.464;49.532;2023-08-07T07:07:34;47.92;7.31
67131;HTU21D;54051;53.464;49.532;2023-08-07T07:10:00;46.00;9.17
67131;HTU21D;54051;53.464;49.532;2023-08-07T07:12:26;46.60;8.10
67131;HTU21D;54051;53.464;49.532;2023-08-07T07:14:52;41.90;12.75
67131;HTU21D;54051;53.464;49.532;2023-08-07T07:17:18;42.80;12.39
67131;HTU21D;54051;53.464;49.532;2023-08-07T07:19:44;45.61;9.27
67131;HTU21D;54051;53.464;49.532;2023-08-07T07:22:09;46.00;9.22
67131;HTU21D;54051;53.464;49.532;2023-08-07T07:24:35;46.42;8.47
67131;HTU21D;54051;53.464;49.532;2023-08-07T07:27:01;45.43;9.66
67131;HTU21D;54051;53.464;49.532;2023-08-07T07:29:27;45.28;9.79
67131;HTU21D;54051;53.464;49.532;2023-08-07T07:31:53;44.05;11.65
67131;HTU21D;54051;53.464;49.532;2023-08-07T07:34:21;46.27;9.19
67131;HTU21D;54051;53.464;49.532;2023-08-07T07:36:47;46.20;9.16
67131;HTU21D;54051;53.464;49.532;2023-08-07T07:39:13;45.87;9.25
67131;HTU21D;54051;53.464;49.532;2023-08-07T07:41:39;45.74;9.60
67131;HTU21D;54051;53.464;49.532;2023-08-07T07:44:04;45.27;9.71
67131;HTU21D;54051;53.464;49.532;2023-08-07T07:46:30;45.93;9.18
67131;HTU21D;54051;53.464;49.532;2023-08-07T07:48:58;46.42;9.09
67131;HTU21D;54051;53.464;49.532;2023-08-07T07:51:24;43.81;11.30
67131;HTU21D;54051;53.464;49.532;2023-08-07T07:53:50;44.86;10.41
67131;HTU21D;54051;53.464;49.532;2023-08-07T07:56:16;45.92;9.23
67131;HTU21D;54051;53.464;49.532;2023-08-07T07:58:42;44.50;10.65
67131;HTU21D;54051;53.464;49.532;2023-08-07T08:01:09;45.03;10.08
67131;HTU21D;54051;53.464;49.532;2023-08-07T08:03:36;44.96;10.45
67131;HTU21D;54051;53.464;49.532;2023-08-07T08:06:02;41.59;13.97
67131;HTU21D;54051;53.464;49.532;2023-08-07T08:08:28;39.55;16.42
67131;HTU21D;54051;53.464;49.532;2023-08-07T08:10:54;42.38;13.03
67131;HTU21D;54051;53.464;49.532;2023-08-07T08:13:19;44.16;11.07
67131;HTU21D;54051;53.464;49.532;2023-08-07T08:15:45;43.13;11.88
67131;HTU21D;54051;53.464;49.532;2023-08-07T08:18:11;41.67;13.08
67131;HTU21D;54051;53.464;49.532;2023-08-07T08:20:37;39.45;15.85
67131;HTU21D;54051;53.464;49.532;2023-08-07T08:23:03;38.37;17.76
67131;HTU21D;54051;53.464;49.532;2023-08-07T08:25:30;38.11;18.19
67131;HTU21D;54051;53.464;49.532;2023-08-07T08:27:56;38.01;18.12
67131;HTU21D;54051;53.464;49.532;2023-08-07T08:30:22;36.81;19.17
67131;HTU21D;54051;53.464;49.532;2023-08-07T08:32:48;35.69;21.35
67131;HTU21D;54051;53.464;49.532;2023-08-07T08:35:14;36.25;20.05
67131;HTU21D;54051;53.464;49.532;2023-08-07T08:37:40;36.07;20.39
67131;HTU21D;54051;53.464;49.532;2023-08-07T08:40:08;36.63;19.78
67131;HTU21D;54051;53.464;49.532;2023-08-07T08:42:34;36.37;19.92
67131;HTU21D;54051;53.464;49.532;2023-08-07T08:44:59;36.39;20.99
67131;HTU21D;54051;53.464;49.532;2023-08-07T08:47:26;36.77;19.82
67131;HTU21D;54051;53.464;49.532;2023-08-07T08:50:02;36.61;19.92
67131;HTU21D;54051;53.464;49.532;2023-08-07T08:52:28;36.49;20.31
67131;HTU21D;54051;53.464;49.532;2023-08-07T08:54:56;36.48;20.12
67131;HTU21D;54051;53.464;49.532;2023-08-07T08:57:22;36.28;20.46
67131;HTU21D;54051;53.464;49.532;2023-08-07T08:59:48;35.65;21.24
67131;HTU21D;54051;53.464;49.532;2023-08-07T09:02:15;35.59;21.99
67131;HTU21D;54051;53.464;49.532;2023-08-07T09:04:41;35.04;22.22
67131;HTU21D;54051;53.464;49.532;2023-08-07T09:07:07;34.60;22.71
67131;HTU21D;54051;53.464;49.532;2023-08-07T09:09:33;34.41;23.40
67131;HTU21D;54051;53.464;49.532;2023-08-07T09:11:59;34.59;23.53
67131;HTU21D;54051;53.464;49.532;2023-08-07T09:14:27;34.62;23.56
67131;HTU21D;54051;53.464;49.532;2023-08-07T09:16:58;34.19;24.14
67131;HTU21D;54051;53.464;49.532;2023-08-07T09:19:25;34.05;24.43
67131;HTU21D;54051;53.464;49.532;2023-08-07T09:21:51;33.89;24.53
67131;HTU21D;54051;53.464;49.532;2023-08-07T09:24:17;33.92;24.60
67131;HTU21D;54051;53.464;49.532;2023-08-07T09:26:45;34.14;24.49
67131;HTU21D;54051;53.464;49.532;2023-08-07T09:29:11;33.99;24.55
67131;HTU21D;54051;53.464;49.532;2023-08-07T09:31:37;33.86;24.56
67131;HTU21D;54051;53.464;49.532;2023-08-07T09:34:03;33.90;23.81
67131;HTU21D;54051;53.464;49.532;2023-08-07T09:36:30;33.46;24.88
67131;HTU21D;54051;53.464;49.532;2023-08-07T09:39:00;33.53;24.75
67131;HTU21D;54051;53.464;49.532;2023-08-07T09:41:26;33.21;25.23
67131;HTU21D;54051;53.464;49.532;2023-08-07T09:43:53;33.03;25.19
67131;HTU21D;54051;53.464;49.532;2023-08-07T09:46:19;32.76;25.09
67131;HTU21D;54051;53.464;49.532;2023-08-07T09:48:44;32.78;25.27
67131;HTU21D;54051;53.464;49.532;2023-08-07T09:51:10;32.96;25.32
67131;HTU21D;54051;53.464;49.532;2023-08-07T09:53:37;32.82;25.96
67131;HTU21D;54051;53.464;49.532;2023-08-07T09:56:03;32.88;26.07
67131;HTU21D;54051;53.464;49.532;2023-08-07T09:58:29;32.91;25.97
67131;HTU21D;54051;53.464;49.532;2023-08-07T10:00:55;33.01;26.01
67131;HTU21D;54051;53.464;49.532;2023-08-07T10:03:27;33.03;25.88
67131;HTU21D;54051;53.464;49.532;2023-08-07T10:05:54;32.99;25.25
67131;HTU21D;54051;53.464;49.532;2023-08-07T10:08:20;32.69;26.04
67131;HTU21D;54051;53.464;49.532;2023-08-07T10:10:46;32.42;26.34
67131;HTU21D;54051;53.464;49.532;2023-08-07T10:13:12;32.32;26.76
67131;HTU21D;54051;53.464;49.532;2023-08-07T10:15:39;32.27;26.47
67131;HTU21D;54051;53.464;49.532;2023-08-07T10:18:07;32.33;26.61
67131;HTU21D;54051;53.464;49.532;2023-08-07T10:20:33;32.49;26.12
67131;HTU21D;54051;53.464;49.532;2023-08-07T10:23:08;32.62;25.77
67131;HTU21D;54051;53.464;49.532;2023-08-07T10:25:35;32.76;26.09
67131;HTU21D;54051;53.464;49.532;2023-08-07T10:28:03;32.88;25.32
67131;HTU21D;54051;53.464;49.532;2023-08-07T10:30:29;32.85;25.66
67131;HTU21D;54051;53.464;49.532;2023-08-07T10:32:57;32.66;25.49
67131;HTU21D;54051;53.464;49.532;2023-08-07T10:35:33;32.48;26.00
67131;HTU21D;54051;53.464;49.532;2023-08-07T10:38:09;32.43;25.75
67131;HTU21D;54051;53.464;49.532;2023-08-07T10:43:20;32.24;26.49
67131;HTU21D;54051;53.464;49.532;2023-08-07T10:45:45;32.43;26.34
67131;HTU21D;54051;53.464;49.532;2023-08-07T10:48:11;32.71;25.75
67131;HTU21D;54051;53.464;49.532;2023-08-07T10:53:35;32.69;25.65
67131;HTU21D;54051;53.464;49.532;2023-08-07T10:56:04;32.08;26.56
67131;HTU21D;54051;53.464;49.532;2023-08-07T10:58:34;31.88;26.84
67131;HTU21D;54051;53.464;49.532;2023-08-07T11:01:15;31.72;27.00
67131;HTU21D;54051;53.464;49.532;2023-08-07T11:03:42;31.98;26.49
67131;HTU21D;54051;53.464;49.532;2023-08-07T11:06:11;32.03;25.98
67131;HTU21D;54051;53.464;49.532;2023-08-07T11:08:37;31.85;26.37
67131;HTU21D;54051;53.464;49.532;2023-08-07T11:11:04;31.67;26.64
67131;HTU21D;54051;53.464;49.532;2023-08-07T11:13:30;31.64;26.78
67131;HTU21D;54051;53.464;49.532;2023-08-07T11:15:56;31.67;26.94
67131;HTU21D;54051;53.464;49.532;2023-08-07T11:18:22;31.70;26.72
67131;HTU21D;54051;53.464;49.532;2023-08-07T11:20:48;31.68;26.88
67131;HTU21D;54051;53.464;49.532;2023-08-07T11:23:14;31.99;26.52
67131;HTU21D;54051;53.464;49.532;2023-08-07T11:25:41;32.19;26.00
67131;HTU21D;54051;53.464;49.532;2023-08-07T11:28:06;32.35;25.41
67131;HTU21D;54051;53.464;49.532;2023-08-07T11:30:34;32.42;25.22
67131;HTU21D;54051;53.464;49.532;2023-08-07T11:33:01;32.31;25.42
67131;HTU21D;54051;53.464;49.532;2023-08-07T11:35:27;32.28;25.88
67131;HTU21D;54051;53.464;49.532;2023-08-07T11:37:54;32.01;25.75
67131;HTU21D;54051;53.464;49.532;2023-08-07T11:40:20;31.70;26.74
67131;HTU21D;54051;53.464;49.532;2023-08-07T11:42:46;31.87;26.75
67131;HTU21D;54051;53.464;49.532;2023-08-07T11:45:12;31.97;26.69
67131;HTU21D;54051;53.464;49.532;2023-08-07T11:47:38;32.05;26.04
67131;HTU21D;54051;53.464;49.532;2023-08-07T11:50:04;31.99;26.08
67131;HTU21D;54051;53.464;49.532;2023-08-07T11:52:30;32.07;25.85
67131;HTU21D;54051;53.464;49.532;2023-08-07T11:54:56;32.11;26.06
67131;HTU21D;54051;53.464;49.532;2023-08-07T11:57:22;32.23;25.55
67131;HTU21D;54051;53.464;49.532;2023-08-07T11:59:51;32.29;25.53
67131;HTU21D;54051;53.464;49.532;2023-08-07T12:02:21;32.22;25.15
67131;HTU21D;54051;53.464;49.532;2023-08-07T12:04:47;31.99;25.33
67131;HTU21D;54051;53.464;49.532;2023-08-07T12:07:15;31.71;25.44
67131;HTU21D;54051;53.464;49.532;2023-08-07T12:09:42;31.58;25.92
67131;HTU21D;54051;53.464;49.532;2023-08-07T12:12:08;31.48;26.10
67131;HTU21D;54051;53.464;49.532;2023-08-07T12:14:36;31.55;26.30
67131;HTU21D;54051;53.464;49.532;2023-08-07T12:17:03;31.67;26.23
67131;HTU21D;54051;53.464;49.532;2023-08-07T12:19:36;31.83;25.63
67131;HTU21D;54051;53.464;49.532;2023-08-07T12:22:05;31.88;25.56
67131;HTU21D;54051;53.464;49.532;2023-08-07T12:24:31;31.94;25.78
67131;HTU21D;54051;53.464;49.532;2023-08-07T12:26:57;31.95;26.31
67131;HTU21D;54051;53.464;49.532;2023-08-07T12:29:23;31.95;25.97
67131;HTU21D;54051;53.464;49.532;2023-08-07T12:31:50;31.95;26.05
67131;HTU21D;54051;53.464;49.532;2023-08-07T12:34:16;31.75;26.49
67131;HTU21D;54051;53.464;49.532;2023-08-07T12:36:42;31.65;26.70
67131;HTU21D;54051;53.464;49.532;2023-08-07T12:39:08;31.67;26.35
67131;HTU21D;54051;53.464;49.532;2023-08-07T12:41:34;31.76;26.59
67131;HTU21D;54051;53.464;49.532;2023-08-07T12:43:59;31.96;26.44
67131;HTU21D;54051;53.464;49.532;2023-08-07T12:46:26;31.92;26.01
67131;HTU21D;54051;53.464;49.532;2023-08-07T12:48:52;31.84;26.21
67131;HTU21D;54051;53.464;49.532;2023-08-07T12:51:18;31.88;26.44
67131;HTU21D;54051;53.464;49.532;2023-08-07T12:53:44;31.92;26.35
67131;HTU21D;54051;53.464;49.532;2023-08-07T12:56:11;31.80;26.20
67131;HTU21D;54051;53.464;49.532;2023-08-07T12:58:37;31.81;26.66
67131;HTU21D;54051;53.464;49.532;2023-08-07T13:01:03;31.86;26.08
67131;HTU21D;54051;53.464;49.532;2023-08-07T13:03:29;31.84;26.34
67131;HTU21D;54051;53.464;49.532;2023-08-07T13:05:55;31.68;26.22
67131;HTU21D;54051;53.464;49.532;2023-08-07T13:08:21;31.65;25.81
67131;HTU21D;54051;53.464;49.532;2023-08-07T13:10:47;31.58;26.08
67131;HTU21D;54051;53.464;49.532;2023-08-07T13:13:12;31.48;26.54
67131;HTU21D;54051;53.464;49.532;2023-08-07T13:15:38;31.42;26.81
67131;HTU21D;54051;53.464;49.532;2023-08-07T13:18:04;31.54;26.52
67131;HTU21D;54051;53.464;49.532;2023-08-07T13:20:30;31.57;26.08
67131;HTU21D;54051;53.464;49.532;2023-08-07T13:22:59;31.63;25.81
67131;HTU21D;54051;53.464;49.532;2023-08-07T13:25:26;31.60;26.19
67131;HTU21D;54051;53.464;49.532;2023-08-07T13:27:51;31.54;26.36
67131;HTU21D;54051;53.464;49.532;2023-08-07T13:30:17;31.64;26.26
67131;HTU21D;54051;53.464;49.532;2023-08-07T13:32:43;31.70;26.14
67131;HTU21D;54051;53.464;49.532;2023-08-07T13:35:09;31.70;26.34
67131;HTU21D;54051;53.464;49.532;2023-08-07T13:37:35;31.80;25.64
67131;HTU21D;54051;53.464;49.532;2023-08-07T13:40:04;31.84;25.67
67131;HTU21D;54051;53.464;49.532;2023-08-07T13:42:30;31.84;25.94
67131;HTU21D;54051;53.464;49.532;2023-08-07T13:49:09;31.61;26.39
67131;HTU21D;54051;53.464;49.532;2023-08-07T13:51:35;31.59;26.66
67131;HTU21D;54051;53.464;49.532;2023-08-07T13:54:01;31.63;26.73
67131;HTU21D;54051;53.464;49.532;2023-08-07T13:56:27;31.53;26.75
67131;HTU21D;54051;53.464;49.532;2023-08-07T13:58:52;31.58;26.55
67131;HTU21D;54051;53.464;49.532;2023-08-07T14:01:20;31.63;26.24
67131;HTU21D;54051;53.464;49.532;2023-08-07T14:03:46;31.70;26.45
67131;HTU21D;54051;53.464;49.532;2023-08-07T14:06:11;31.61;26.49
67131;HTU21D;54051;53.464;49.532;2023-08-07T14:08:37;31.60;26.22
67131;HTU21D;54051;53.464;49.532;2023-08-07T14:11:03;31.41;26.47
67131;HTU21D;54051;53.464;49.532;2023-08-07T14:13:30;31.18;26.97
67131;HTU21D;54051;53.464;49.532;2023-08-07T14:15:56;31.21;26.65
67131;HTU21D;54051;53.464;49.532;2023-08-07T14:18:21;31.27;26.42
67131;HTU21D;54051;53.464;49.532;2023-08-07T14:20:47;31.31;26.52
67131;HTU21D;54051;53.464;49.532;2023-08-07T14:23:13;31.33;26.44
67131;HTU21D;54051;53.464;49.532;2023-08-07T14:25:39;31.35;26.56
67131;HTU21D;54051;53.464;49.532;2023-08-07T14:28:04;31.34;26.62
67131;HTU21D;54051;53.464;49.532;2023-08-07T14:30:33;31.28;26.53
67131;HTU21D;54051;53.464;49.532;2023-08-07T14:32:59;31.20;26.63
67131;HTU21D;54051;53.464;49.532;2023-08-07T14:35:25;31.16;26.67
67131;HTU21D;54051;53.464;49.532;2023-08-07T14:37:51;31.11;26.67
67131;HTU21D;54051;53.464;49.532;2023-08-07T14:40:16;30.99;26.85
67131;HTU21D;54051;53.464;49.532;2023-08-07T14:42:42;30.97;27.00
67131;HTU21D;54051;53.464;49.532;2023-08-07T14:45:08;30.96;27.07
67131;HTU21D;54051;53.464;49.532;2023-08-07T14:47:34;30.98;27.22
67131;HTU21D;54051;53.464;49.532;2023-08-07T14:50:00;30.98;27.05
67131;HTU21D;54051;53.464;49.532;2023-08-07T14:52:26;30.99;27.36
67131;HTU21D;54051;53.464;49.532;2023-08-07T14:54:52;30.93;27.19
67131;HTU21D;54051;53.464;49.532;2023-08-07T14:57:21;30.89;27.74
67131;HTU21D;54051;53.464;49.532;2023-08-07T14:59:47;30.86;27.82
67131;HTU21D;54051;53.464;49.532;2023-08-07T15:02:13;30.80;27.75
67131;HTU21D;54051;53.464;49.532;2023-08-07T15:04:38;30.69;27.95
67131;HTU21D;54051;53.464;49.532;2023-08-07T15:07:04;30.64;28.16
67131;HTU21D;54051;53.464;49.532;2023-08-07T15:09:30;30.66;28.19
67131;HTU21D;54051;53.464;49.532;2023-08-07T15:11:56;30.75;27.91